Time;durP1;ratioP1;P1;durP2;ratioP2;P2;SDS_P1;SDS_P2;PMS_P1;PMS_P2;Temp;Humidity;BMP_temperature;BMP_pressure;BME280_temperature;BME280_humidity;BME280_pressure;Samples;Min_cycle;Max_cycle;Signal;HPM_P1;HPM_P2
2021/08/14 00:00:09;;;;;;;;;;;;;;;;;;2100892;28;1277;-86
2021/08/14 00:01:12;;;;;;;;;;;;;;;;;;2100998;28;1301;-86
2021/08/14 00:02:13;;;;;;;;;;;;;;;;;;2109178;28;1341;-86
2021/08/14 00:03:18;;;;;;;;;;;;;;;;;;2117689;28;1277;-86
2021/08/14 00:04:19;;;;;;;;;;;;;;;;;;2117425;28;1391;-86
2021/08/14 00:05:22;;;;;;;;;;;;;;;;;;2109149;28;1364;-85
2021/08/14 00:06:23;;;;;;;;;;;;;;;;;;2101277;28;1244;-86
2021/08/14 00:07:25;;;;;;;;;;;;;;;;;;2100801;28;1404;-84
2021/08/14 00:08:26;;;;;;;;;;;;;;;;;;2117364;28;1363;-85
2021/08/14 00:09:28;;;;;;;;;;;;;;;;;;2109550;28;1218;-85
2021/08/14 00:10:28;;;;;;;;;;;;;;;;;;2108965;28;1301;-85
2021/08/14 00:11:32;;;;;;;;;;;;;;;;;;2109471;28;1469;-85
2021/08/14 00:12:32;;;;;;;;;;;;;;;;;;2109260;28;1910;-85
2021/08/14 00:13:36;;;;;;;;;;;;;;;;;;2109616;28;1291;-85
2021/08/14 00:14:37;;;;;;;;;;;;;;;;;;2109542;28;1327;-85
2021/08/14 00:15:39;;;;;;;;;;;;;;;;;;2117740;28;1258;-85
2021/08/14 00:16:39;;;;;;;;;;;;;;;;;;2108982;28;1336;-85
2021/08/14 00:17:41;;;;;;;;;;;;;;;;;;2118015;27;1185;-85
2021/08/14 00:18:42;;;;;;;;;;;;;;;;;;2117597;28;1237;-85
2021/08/14 00:19:44;;;;;;;;;;;;;;;;;;2109022;28;1262;-85
2021/08/14 00:20:45;;;;;;;;;;;;;;;;;;2117287;28;1331;-85
2021/08/14 00:21:47;;;;;;;;;;;;;;;;;;2117425;28;1216;-85
2021/08/14 00:22:49;;;;;;;;;;;;;;;;;;2117822;28;954;-85
2021/08/14 00:23:50;;;;;;;;;;;;;;;;;;2117947;27;1750;-85
2021/08/14 00:24:52;;;;;;;;;;;;;;;;;;2100676;28;1319;-85
2021/08/14 00:25:55;;;;;;;;;;;;;;;;;;2101020;28;1293;-85
2021/08/14 00:26:58;;;;;;;;;;;;;;;;;;2109780;28;1463;-84
2021/08/14 00:28:00;;;;;;;;;;;;;;;;;;2109401;28;959;-84
2021/08/14 00:29:02;;;;;;;;;;;;;;;;;;2109198;28;1467;-84
2021/08/14 00:30:02;;;;;;;;;;;;;;;;;;2108799;28;1179;-85
2021/08/14 00:31:05;;;;;;;;;;;;;;;;;;2109177;28;1345;-85
2021/08/14 00:32:08;;;;;;;;;;;;;;;;;;2117748;28;1336;-85
2021/08/14 00:33:10;;;;;;;;;;;;;;;;;;2109489;28;1961;-84
2021/08/14 00:34:12;;;;;;;;;;;;;;;;;;2108565;28;1409;-85
2021/08/14 00:35:13;;;;;;;;;;;;;;;;;;2117146;28;1420;-84
2021/08/14 00:36:15;;;;;;;;;;;;;;;;;;2103211;28;2047;-84
2021/08/14 00:37:16;;;;;;;;;;;;;;;;;;2100862;28;1428;-84
2021/08/14 00:38:19;;;;;;;;;;;;;;;;;;2108641;28;1230;-84
2021/08/14 00:39:20;;;;;;;;;;;;;;;;;;2101124;28;1241;-84
2021/08/14 00:40:22;;;;;;;;;;;;;;;;;;2092346;28;1705;-84
2021/08/14 00:41:22;;;;;;;;;;;;;;;;;;2100935;28;1179;-84
2021/08/14 00:42:26;;;;;;;;;;;;;;;;;;2108358;28;1226;-86
2021/08/14 00:43:26;;;;;;;;;;;;;;;;;;2100926;28;1298;-84
2021/08/14 00:44:28;;;;;;;;;;;;;;;;;;2100402;28;1327;-84
2021/08/14 00:45:29;;;;;;;;;;;;;;;;;;2100390;28;1644;-85
2021/08/14 00:46:31;;;;;;;;;;;;;;;;;;2100092;28;1230;-84
2021/08/14 00:47:32;;;;;;;;;;;;;;;;;;2108810;28;1463;-84
2021/08/14 00:48:34;;;;;;;;;;;;;;;;;;2108835;28;1321;-85
2021/08/14 00:49:34;;;;;;;;;;;;;;;;;;2109501;28;1210;-85
2021/08/14 00:50:36;;;;;;;;;;;;;;;;;;2108811;28;1213;-86
2021/08/14 00:51:37;;;;;;;;;;;;;;;;;;2109074;28;1333;-85
2021/08/14 00:52:39;;;;;;;;;;;;;;;;;;2102167;28;1219;-85
2021/08/14 00:53:40;;;;;;;;;;;;;;;;;;2108977;28;1973;-85
2021/08/14 00:54:41;;;;;;;;;;;;;;;;;;2109005;28;1217;-85
2021/08/14 00:55:43;;;;;;;;;;;;;;;;;;2100383;28;1311;-86
2021/08/14 00:56:45;;;;;;;;;;;;;;;;;;2100343;28;1380;-85
2021/08/14 00:57:47;;;;;;;;;;;;;;;;;;2100526;28;1318;-85
2021/08/14 00:58:51;;;;;;;;;;;;;;;;;;2100166;28;1262;-85
2021/08/14 00:59:52;;;;;;;;;;;;;;;;;;2100860;28;1431;-86
2021/08/14 01:00:55;;;;;;;;;;;;;;;;;;2084067;28;1369;-85
2021/08/14 01:01:56;;;;;;;;;;;;;;;;;;2090171;28;1297;-85
2021/08/14 01:02:58;;;;;;;;;;;;;;;;;;2092339;28;1360;-85
2021/08/14 01:03:58;;;;;;;;;;;;;;;;;;2109147;28;1260;-85
2021/08/14 01:05:00;;;;;;;;;;;;;;;;;;2108885;28;1222;-85
2021/08/14 01:06:01;;;;;;;;;;;;;;;;;;2103952;28;1184;-85
2021/08/14 01:07:03;;;;;;;;;;;;;;;;;;2117192;28;1214;-85
2021/08/14 01:08:04;;;;;;;;;;;;;;;;;;2108134;28;1300;-86
2021/08/14 01:09:06;;;;;;;;;;;;;;;;;;2117150;28;1275;-85
2021/08/14 01:10:07;;;;;;;;;;;;;;;;;;2116813;28;952;-87
2021/08/14 01:11:10;;;;;;;;;;;;;;;;;;2112557;28;2025;-85
2021/08/14 01:12:12;;;;;;;;;;;;;;;;;;2109102;28;1416;-85
2021/08/14 01:13:17;;;;;;;;;;;;;;;;;;2108546;28;1906;-85
2021/08/14 01:14:17;;;;;;;;;;;;;;;;;;2109321;28;1518;-85
2021/08/14 01:15:20;;;;;;;;;;;;;;;;;;2108665;28;1443;-85
2021/08/14 01:16:21;;;;;;;;;;;;;;;;;;2108380;28;1263;-85
2021/08/14 01:17:24;;;;;;;;;;;;;;;;;;2100661;28;1380;-85
2021/08/14 01:18:25;;;;;;;;;;;;;;;;;;2108726;28;1652;-85
2021/08/14 01:19:27;;;;;;;;;;;;;;;;;;2108430;28;1526;-86
2021/08/14 01:20:28;;;;;;;;;;;;;;;;;;2108347;28;1505;-86
2021/08/14 01:21:30;;;;;;;;;;;;;;;;;;2108289;28;1526;-85
2021/08/14 01:22:31;;;;;;;;;;;;;;;;;;2102333;28;2118;-86
2021/08/14 01:23:33;;;;;;;;;;;;;;;;;;2109090;28;1242;-85
2021/08/14 01:24:34;;;;;;;;;;;;;;;;;;2116668;28;1268;-85
2021/08/14 01:25:36;;;;;;;;;;;;;;;;;;2108453;28;1332;-85
2021/08/14 01:26:40;;;;;;;;;;;;;;;;;;2092350;28;1240;-86
2021/08/14 01:27:43;;;;;;;;;;;;;;;;;;2099686;28;1301;-86
2021/08/14 01:28:44;;;;;;;;;;;;;;;;;;2100165;28;1218;-86
2021/08/14 01:29:45;;;;;;;;;;;;;;;;;;2099911;28;1298;-85
2021/08/14 01:30:46;;;;;;;;;;;;;;;;;;2100258;28;1410;-86
2021/08/14 01:31:50;;;;;;;;;;;;;;;;;;2100082;28;1391;-86
2021/08/14 01:32:52;;;;;;;;;;;;;;;;;;2096002;28;1217;-86
2021/08/14 01:33:55;;;;;;;;;;;;;;;;;;2100314;28;1975;-86
2021/08/14 01:34:57;;;;;;;;;;;;;;;;;;2100646;28;1288;-85
2021/08/14 01:35:59;;;;;;;;;;;;;;;;;;2100038;28;1221;-87
2021/08/14 01:37:01;;;;;;;;;;;;;;;;;;2108593;28;1388;-86
2021/08/14 01:38:02;;;;;;;;;;;;;;;;;;2098156;28;1224;-86
2021/08/14 01:39:05;;;;;;;;;;;;;;;;;;2100153;28;1351;-85
2021/08/14 01:40:07;;;;;;;;;;;;;;;;;;2100646;28;1364;-88
2021/08/14 01:41:09;;;;;;;;;;;;;;;;;;2108541;28;1098;-86
2021/08/14 01:42:12;;;;;;;;;;;;;;;;;;2108368;28;1589;-86
2021/08/14 01:43:14;;;;;;;;;;;;;;;;;;2099732;28;1367;-86
2021/08/14 01:44:14;;;;;;;;;;;;;;;;;;2099706;28;1228;-86
2021/08/14 01:45:17;;;;;;;;;;;;;;;;;;2100218;28;1341;-85
2021/08/14 01:46:17;;;;;;;;;;;;;;;;;;2105131;28;1322;-86
2021/08/14 01:47:19;;;;;;;;;;;;;;;;;;2099850;28;1883;-87
2021/08/14 01:48:20;;;;;;;;;;;;;;;;;;2099596;28;1178;-85
2021/08/14 01:49:22;;;;;;;;;;;;;;;;;;2108739;28;1269;-86
2021/08/14 01:50:23;;;;;;;;;;;;;;;;;;2108575;28;1383;-86
2021/08/14 01:51:25;;;;;;;;;;;;;;;;;;2108731;28;1323;-86
2021/08/14 01:52:26;;;;;;;;;;;;;;;;;;2115039;28;1912;-86
2021/08/14 01:53:28;;;;;;;;;;;;;;;;;;2100187;28;1980;-86
2021/08/14 01:54:29;;;;;;;;;;;;;;;;;;2108584;28;1384;-86
2021/08/14 01:55:31;;;;;;;;;;;;;;;;;;2100392;28;1333;-85
2021/08/14 01:56:32;;;;;;;;;;;;;;;;;;2099579;28;2046;-86
2021/08/14 01:57:36;;;;;;;;;;;;;;;;;;2100138;28;1313;-86
2021/08/14 01:58:37;;;;;;;;;;;;;;;;;;2091630;28;1178;-85
2021/08/14 01:59:38;;;;;;;;;;;;;;;;;;2091974;28;1345;-86
2021/08/14 02:00:39;;;;;;;;;;;;;;;;;;2099671;28;1285;-86
2021/08/14 02:01:41;;;;;;;;;;;;;;;;;;2100213;28;1249;-85
2021/08/14 02:02:42;;;;;;;;;;;;;;;;;;2091692;28;1295;-85
2021/08/14 02:03:46;;;;;;;;;;;;;;;;;;2091784;28;1328;-84
2021/08/14 02:04:48;;;;;;;;;;;;;;;;;;2100153;28;1434;-85
2021/08/14 02:05:48;;;;;;;;;;;;;;;;;;2099642;28;1329;-85
2021/08/14 02:06:50;;;;;;;;;;;;;;;;;;2107888;28;1385;-84
2021/08/14 02:07:51;;;;;;;;;;;;;;;;;;2104290;28;1493;-85
2021/08/14 02:08:53;;;;;;;;;;;;;;;;;;2108053;28;1376;-85
2021/08/14 02:09:56;;;;;;;;;;;;;;;;;;2108603;28;1182;-85
2021/08/14 02:10:56;;;;;;;;;;;;;;;;;;2107851;28;1389;-85
2021/08/14 02:11:58;;;;;;;;;;;;;;;;;;2107881;28;1359;-85
2021/08/14 02:13:00;;;;;;;;;;;;;;;;;;2107553;28;1417;-84
2021/08/14 02:14:03;;;;;;;;;;;;;;;;;;2099873;28;1973;-85
2021/08/14 02:15:04;;;;;;;;;;;;;;;;;;2100167;28;1367;-85
2021/08/14 02:16:06;;;;;;;;;;;;;;;;;;2108072;28;1406;-85
2021/08/14 02:17:08;;;;;;;;;;;;;;;;;;2116401;28;1297;-85
2021/08/14 02:18:09;;;;;;;;;;;;;;;;;;2115990;28;1236;-85
2021/08/14 02:19:11;;;;;;;;;;;;;;;;;;2107901;28;1324;-85
2021/08/14 02:20:12;;;;;;;;;;;;;;;;;;2108272;28;1348;-85
2021/08/14 02:21:14;;;;;;;;;;;;;;;;;;2102322;28;1448;-85
2021/08/14 02:22:14;;;;;;;;;;;;;;;;;;2108310;28;869;-85
2021/08/14 02:23:16;;;;;;;;;;;;;;;;;;2116448;28;1946;-85
2021/08/14 02:24:17;;;;;;;;;;;;;;;;;;2107741;28;1372;-85
2021/08/14 02:25:20;;;;;;;;;;;;;;;;;;2108228;28;1309;-85
2021/08/14 02:26:21;;;;;;;;;;;;;;;;;;2101344;28;1292;-85
2021/08/14 02:27:23;;;;;;;;;;;;;;;;;;2107978;28;1625;-85
2021/08/14 02:28:26;;;;;;;;;;;;;;;;;;2108112;28;902;-85
2021/08/14 02:29:27;;;;;;;;;;;;;;;;;;2107961;28;1236;-85
2021/08/14 02:30:28;;;;;;;;;;;;;;;;;;2107568;28;1379;-85
2021/08/14 02:31:30;;;;;;;;;;;;;;;;;;2107695;28;1286;-85
2021/08/14 02:32:32;;;;;;;;;;;;;;;;;;2107708;28;1221;-85
2021/08/14 02:33:33;;;;;;;;;;;;;;;;;;2100253;28;2227;-85
2021/08/14 02:34:35;;;;;;;;;;;;;;;;;;2099729;28;1427;-85
2021/08/14 02:35:36;;;;;;;;;;;;;;;;;;2107609;28;1471;-85
2021/08/14 02:36:37;;;;;;;;;;;;;;;;;;2099247;28;1223;-84
2021/08/14 02:37:38;;;;;;;;;;;;;;;;;;2099847;28;1508;-85
2021/08/14 02:38:40;;;;;;;;;;;;;;;;;;2099625;28;1356;-84
2021/08/14 02:39:42;;;;;;;;;;;;;;;;;;2107952;28;1243;-85
2021/08/14 02:40:46;;;;;;;;;;;;;;;;;;2099018;28;1210;-85
2021/08/14 02:41:48;;;;;;;;;;;;;;;;;;2091878;28;1229;-85
2021/08/14 02:42:48;;;;;;;;;;;;;;;;;;2091381;28;1310;-85
2021/08/14 02:43:52;;;;;;;;;;;;;;;;;;2099045;28;1674;-85
2021/08/14 02:44:53;;;;;;;;;;;;;;;;;;2107588;28;1192;-85
2021/08/14 02:45:54;;;;;;;;;;;;;;;;;;2107874;28;1312;-85
2021/08/14 02:46:56;;;;;;;;;;;;;;;;;;2099255;28;1252;-85
2021/08/14 02:47:57;;;;;;;;;;;;;;;;;;2107532;28;1372;-85
2021/08/14 02:48:59;;;;;;;;;;;;;;;;;;2099640;28;1217;-85
2021/08/14 02:50:00;;;;;;;;;;;;;;;;;;2099513;28;1356;-85
2021/08/14 02:51:02;;;;;;;;;;;;;;;;;;2099850;28;1275;-85
2021/08/14 02:52:03;;;;;;;;;;;;;;;;;;2108008;28;1305;-85
2021/08/14 02:53:05;;;;;;;;;;;;;;;;;;2107646;28;1305;-85
2021/08/14 02:54:05;;;;;;;;;;;;;;;;;;2099294;28;1906;-91
2021/08/14 02:55:08;;;;;;;;;;;;;;;;;;2099924;28;1348;-85
2021/08/14 02:56:10;;;;;;;;;;;;;;;;;;2107471;28;1297;-85
2021/08/14 02:57:10;;;;;;;;;;;;;;;;;;2099613;28;1296;-85
2021/08/14 02:58:12;;;;;;;;;;;;;;;;;;2107765;28;1371;-86
2021/08/14 02:59:15;;;;;;;;;;;;;;;;;;2099685;28;1193;-85
2021/08/14 03:00:17;;;;;;;;;;;;;;;;;;2099139;28;1279;-85
2021/08/14 03:01:19;;;;;;;;;;;;;;;;;;2091685;28;1382;-85
2021/08/14 03:02:20;;;;;;;;;;;;;;;;;;2091313;28;1262;-85
2021/08/14 03:03:22;;;;;;;;;;;;;;;;;;2098942;28;1333;-85
2021/08/14 03:04:22;;;;;;;;;;;;;;;;;;2107657;28;1355;-85
2021/08/14 03:05:25;;;;;;;;;;;;;;;;;;2108037;28;1301;-85
2021/08/14 03:06:26;;;;;;;;;;;;;;;;;;2099226;28;2023;-85
2021/08/14 03:07:30;;;;;;;;;;;;;;;;;;2091909;28;1219;-85
2021/08/14 03:08:32;;;;;;;;;;;;;;;;;;2101360;28;1569;-84
2021/08/14 03:09:33;;;;;;;;;;;;;;;;;;2110383;28;1207;-84
2021/08/14 03:10:35;;;;;;;;;;;;;;;;;;2102009;28;1209;-85
2021/08/14 03:11:36;;;;;;;;;;;;;;;;;;2102290;28;1356;-85
2021/08/14 03:12:38;;;;;;;;;;;;;;;;;;2101526;28;1334;-85
2021/08/14 03:13:38;;;;;;;;;;;;;;;;;;2101931;28;1981;-85
2021/08/14 03:14:42;;;;;;;;;;;;;;;;;;2093642;28;1203;-85
2021/08/14 03:15:43;;;;;;;;;;;;;;;;;;2110057;28;1175;-85
2021/08/14 03:16:45;;;;;;;;;;;;;;;;;;2116232;28;1206;-85
2021/08/14 03:17:45;;;;;;;;;;;;;;;;;;2116566;28;803;-85
2021/08/14 03:18:47;;;;;;;;;;;;;;;;;;2116092;28;1256;-85
2021/08/14 03:19:48;;;;;;;;;;;;;;;;;;2099920;28;1504;-85
2021/08/14 03:20:50;;;;;;;;;;;;;;;;;;2098972;28;1291;-85
2021/08/14 03:21:51;;;;;;;;;;;;;;;;;;2107571;28;1394;-85
2021/08/14 03:22:53;;;;;;;;;;;;;;;;;;2098778;28;1369;-85
2021/08/14 03:23:53;;;;;;;;;;;;;;;;;;2099072;28;1482;-85
2021/08/14 03:24:55;;;;;;;;;;;;;;;;;;2107802;28;1332;-85
2021/08/14 03:25:56;;;;;;;;;;;;;;;;;;2107528;28;1726;-85
2021/08/14 03:26:58;;;;;;;;;;;;;;;;;;2107862;28;1317;-85
2021/08/14 03:28:00;;;;;;;;;;;;;;;;;;2107188;28;1634;-84
2021/08/14 03:29:00;;;;;;;;;;;;;;;;;;2107130;28;1293;-85
2021/08/14 03:30:04;;;;;;;;;;;;;;;;;;2107362;28;1223;-85
2021/08/14 03:31:05;;;;;;;;;;;;;;;;;;2107905;28;1233;-85
2021/08/14 03:32:07;;;;;;;;;;;;;;;;;;2116125;28;1343;-89
2021/08/14 03:33:08;;;;;;;;;;;;;;;;;;2098786;28;1538;-85
2021/08/14 03:34:10;;;;;;;;;;;;;;;;;;2107585;28;1909;-85
2021/08/14 03:35:11;;;;;;;;;;;;;;;;;;2107520;28;1675;-84
2021/08/14 03:36:14;;;;;;;;;;;;;;;;;;2107439;28;1307;-85
2021/08/14 03:37:15;;;;;;;;;;;;;;;;;;2107766;28;1286;-84
2021/08/14 03:38:17;;;;;;;;;;;;;;;;;;2099159;28;1205;-85
2021/08/14 03:39:17;;;;;;;;;;;;;;;;;;2099563;28;1308;-84
2021/08/14 03:40:19;;;;;;;;;;;;;;;;;;2099514;28;1275;-83
2021/08/14 03:41:21;;;;;;;;;;;;;;;;;;2107528;28;1359;-83
2021/08/14 03:42:22;;;;;;;;;;;;;;;;;;2107669;28;1665;-83
2021/08/14 03:43:24;;;;;;;;;;;;;;;;;;2098905;28;1212;-84
2021/08/14 03:44:24;;;;;;;;;;;;;;;;;;2099190;28;1340;-83
2021/08/14 03:45:28;;;;;;;;;;;;;;;;;;2099349;28;1609;-82
2021/08/14 03:46:29;;;;;;;;;;;;;;;;;;2099898;28;915;-82
2021/08/14 03:47:31;;;;;;;;;;;;;;;;;;2099476;28;1674;-82
2021/08/14 03:48:33;;;;;;;;;;;;;;;;;;2099373;28;1176;-83
2021/08/14 03:49:34;;;;;;;;;;;;;;;;;;2107297;28;1455;-83
2021/08/14 03:50:35;;;;;;;;;;;;;;;;;;2107247;28;1723;-84
2021/08/14 03:51:36;;;;;;;;;;;;;;;;;;2099329;28;1245;-83
2021/08/14 03:52:38;;;;;;;;;;;;;;;;;;2099336;28;1700;-83
2021/08/14 03:53:39;;;;;;;;;;;;;;;;;;2098917;28;1294;-83
2021/08/14 03:54:42;;;;;;;;;;;;;;;;;;2099119;28;1905;-83
2021/08/14 03:55:43;;;;;;;;;;;;;;;;;;2099567;28;1549;-83
2021/08/14 03:56:45;;;;;;;;;;;;;;;;;;2099253;28;1468;-83
2021/08/14 03:57:47;;;;;;;;;;;;;;;;;;2098914;28;1427;-83
2021/08/14 03:58:47;;;;;;;;;;;;;;;;;;2099233;28;1565;-83
2021/08/14 03:59:49;;;;;;;;;;;;;;;;;;2099531;28;1701;-83
2021/08/14 04:00:51;;;;;;;;;;;;;;;;;;2099139;28;1229;-83
2021/08/14 04:01:53;;;;;;;;;;;;;;;;;;2099377;28;1564;-83
2021/08/14 04:02:54;;;;;;;;;;;;;;;;;;2098957;28;1282;-83
2021/08/14 04:03:56;;;;;;;;;;;;;;;;;;2099001;28;1643;-83
2021/08/14 04:04:56;;;;;;;;;;;;;;;;;;2099336;28;1706;-83
2021/08/14 04:05:58;;;;;;;;;;;;;;;;;;2099250;28;1467;-83
2021/08/14 04:06:59;;;;;;;;;;;;;;;;;;2099016;28;1289;-83
2021/08/14 04:08:01;;;;;;;;;;;;;;;;;;2099149;28;1277;-83
2021/08/14 04:09:02;;;;;;;;;;;;;;;;;;2107467;28;1212;-83
2021/08/14 04:10:04;;;;;;;;;;;;;;;;;;2099383;28;1230;-82
2021/08/14 04:11:05;;;;;;;;;;;;;;;;;;2094907;28;2024;-83
2021/08/14 04:12:07;;;;;;;;;;;;;;;;;;2107704;28;1620;-82
2021/08/14 04:13:08;;;;;;;;;;;;;;;;;;2098886;28;1302;-82
2021/08/14 04:14:10;;;;;;;;;;;;;;;;;;2098700;28;1977;-83
2021/08/14 04:15:11;;;;;;;;;;;;;;;;;;2093923;28;1491;-83
2021/08/14 04:16:14;;;;;;;;;;;;;;;;;;2107061;28;1582;-83
2021/08/14 04:17:16;;;;;;;;;;;;;;;;;;2107220;28;1309;-84
2021/08/14 04:18:17;;;;;;;;;;;;;;;;;;2099480;28;1367;-83
2021/08/14 04:19:19;;;;;;;;;;;;;;;;;;2108108;28;1592;-83
2021/08/14 04:20:20;;;;;;;;;;;;;;;;;;2098677;28;1687;-84
2021/08/14 04:21:22;;;;;;;;;;;;;;;;;;2099148;28;1688;-83
2021/08/14 04:22:23;;;;;;;;;;;;;;;;;;2098818;28;1598;-83
2021/08/14 04:23:24;;;;;;;;;;;;;;;;;;2099427;28;1362;-83
2021/08/14 04:24:25;;;;;;;;;;;;;;;;;;2106987;28;1584;-83
2021/08/14 04:25:27;;;;;;;;;;;;;;;;;;2090708;28;1519;-83
2021/08/14 04:26:30;;;;;;;;;;;;;;;;;;2090848;28;1317;-83
2021/08/14 04:27:32;;;;;;;;;;;;;;;;;;2099574;28;1295;-84
2021/08/14 04:28:34;;;;;;;;;;;;;;;;;;2107520;28;913;-83
2021/08/14 04:29:35;;;;;;;;;;;;;;;;;;2107400;28;1327;-83
2021/08/14 04:30:36;;;;;;;;;;;;;;;;;;2106774;28;1228;-84
2021/08/14 04:31:39;;;;;;;;;;;;;;;;;;2100237;28;1317;-83
2021/08/14 04:32:41;;;;;;;;;;;;;;;;;;2106373;28;1389;-83
2021/08/14 04:33:41;;;;;;;;;;;;;;;;;;2107180;28;1350;-83
2021/08/14 04:34:43;;;;;;;;;;;;;;;;;;2106939;28;1984;-83
2021/08/14 04:35:45;;;;;;;;;;;;;;;;;;2104896;28;1686;-83
2021/08/14 04:36:46;;;;;;;;;;;;;;;;;;2114815;28;1352;-83
2021/08/14 04:37:49;;;;;;;;;;;;;;;;;;2107589;28;1740;-83
2021/08/14 04:38:49;;;;;;;;;;;;;;;;;;2107633;28;1206;-84
2021/08/14 04:39:51;;;;;;;;;;;;;;;;;;2111619;28;1956;-84
2021/08/14 04:40:53;;;;;;;;;;;;;;;;;;2108516;28;1489;-82
2021/08/14 04:41:56;;;;;;;;;;;;;;;;;;2107527;28;1510;-82
2021/08/14 04:42:56;;;;;;;;;;;;;;;;;;2107351;28;1500;-82
2021/08/14 04:43:58;;;;;;;;;;;;;;;;;;2098929;28;1729;-82
2021/08/14 04:44:59;;;;;;;;;;;;;;;;;;2107416;28;1214;-82
2021/08/14 04:46:01;;;;;;;;;;;;;;;;;;2116972;28;1346;-82
2021/08/14 04:47:04;;;;;;;;;;;;;;;;;;2108420;28;1567;-83
2021/08/14 04:48:06;;;;;;;;;;;;;;;;;;2108983;28;1281;-83
2021/08/14 04:49:07;;;;;;;;;;;;;;;;;;2103936;28;1587;-81
2021/08/14 04:50:09;;;;;;;;;;;;;;;;;;2101747;28;1665;-83
2021/08/14 04:51:10;;;;;;;;;;;;;;;;;;2100453;28;1360;-81
2021/08/14 04:52:12;;;;;;;;;;;;;;;;;;2100492;28;1222;-82
2021/08/14 04:53:13;;;;;;;;;;;;;;;;;;2108419;28;1543;-82
2021/08/14 04:54:15;;;;;;;;;;;;;;;;;;2108855;28;1555;-82
2021/08/14 04:55:15;;;;;;;;;;;;;;;;;;2092340;28;1997;-82
2021/08/14 04:56:17;;;;;;;;;;;;;;;;;;2092133;28;1719;-82
2021/08/14 04:57:18;;;;;;;;;;;;;;;;;;2100702;28;1340;-83
2021/08/14 04:58:20;;;;;;;;;;;;;;;;;;2100064;28;1712;-83
2021/08/14 04:59:20;;;;;;;;;;;;;;;;;;2100437;28;1543;-82
2021/08/14 05:00:23;;;;;;;;;;;;;;;;;;2099646;28;1685;-82
2021/08/14 05:01:23;;;;;;;;;;;;;;;;;;2108985;28;1012;-82
2021/08/14 05:02:27;;;;;;;;;;;;;;;;;;2108786;28;1613;-83
2021/08/14 05:03:28;;;;;;;;;;;;;;;;;;2108817;28;946;-82
2021/08/14 05:04:29;;;;;;;;;;;;;;;;;;2108294;28;1748;-82
2021/08/14 05:05:30;;;;;;;;;;;;;;;;;;2092206;28;1758;-83
2021/08/14 05:06:32;;;;;;;;;;;;;;;;;;2083799;28;1592;-83
2021/08/14 05:07:33;;;;;;;;;;;;;;;;;;2095740;28;1554;-82
2021/08/14 05:08:35;;;;;;;;;;;;;;;;;;2109142;28;1564;-82
2021/08/14 05:09:36;;;;;;;;;;;;;;;;;;2117070;28;1189;-91
2021/08/14 05:10:38;;;;;;;;;;;;;;;;;;2108173;28;1368;-87
2021/08/14 05:11:40;;;;;;;;;;;;;;;;;;2117043;28;1461;-87
2021/08/14 05:12:41;;;;;;;;;;;;;;;;;;2108598;28;1203;-87
2021/08/14 05:13:43;;;;;;;;;;;;;;;;;;2108665;28;1408;-87
2021/08/14 05:14:43;;;;;;;;;;;;;;;;;;2108775;28;1972;-87
2021/08/14 05:15:45;;;;;;;;;;;;;;;;;;2106819;28;1430;-82
2021/08/14 05:16:46;;;;;;;;;;;;;;;;;;2108549;28;905;-82
2021/08/14 05:19:51;;;;;;;;;;;;;;;;;;2109425;28;610;-83
2021/08/14 05:20:52;;;;;;;;;;;;;;;;;;2108288;28;2006;-81
2021/08/14 05:21:53;;;;;;;;;;;;;;;;;;2099940;28;1617;-81
2021/08/14 05:22:55;;;;;;;;;;;;;;;;;;2100011;28;1698;-81
2021/08/14 05:23:56;;;;;;;;;;;;;;;;;;2092417;28;1687;-81
2021/08/14 05:24:58;;;;;;;;;;;;;;;;;;2100055;28;1302;-81
2021/08/14 05:25:58;;;;;;;;;;;;;;;;;;2108568;28;1195;-81
2021/08/14 05:27:00;;;;;;;;;;;;;;;;;;2108493;28;1727;-81
2021/08/14 05:28:02;;;;;;;;;;;;;;;;;;2099733;28;1230;-81
2021/08/14 05:29:03;;;;;;;;;;;;;;;;;;2099821;28;1614;-82
2021/08/14 05:30:05;;;;;;;;;;;;;;;;;;2100213;28;1629;-81
2021/08/14 05:31:06;;;;;;;;;;;;;;;;;;2102623;28;1535;-81
2021/08/14 05:32:07;;;;;;;;;;;;;;;;;;2107980;28;1629;-83
2021/08/14 05:33:09;;;;;;;;;;;;;;;;;;2107840;28;2154;-81
2021/08/14 05:34:10;;;;;;;;;;;;;;;;;;2100189;28;1621;-82
2021/08/14 05:35:13;;;;;;;;;;;;;;;;;;2099905;28;1905;-82
2021/08/14 05:36:14;;;;;;;;;;;;;;;;;;2099985;28;1655;-82
2021/08/14 05:37:16;;;;;;;;;;;;;;;;;;2100670;28;1552;-82
2021/08/14 05:38:17;;;;;;;;;;;;;;;;;;2108499;28;855;-82
2021/08/14 05:39:18;;;;;;;;;;;;;;;;;;2108755;28;1696;-81
2021/08/14 05:40:19;;;;;;;;;;;;;;;;;;2099501;28;1242;-82
2021/08/14 05:41:21;;;;;;;;;;;;;;;;;;2100050;28;1542;-82
2021/08/14 05:42:22;;;;;;;;;;;;;;;;;;2107803;28;1178;-82
2021/08/14 05:43:24;;;;;;;;;;;;;;;;;;2100209;28;1684;-81
2021/08/14 05:44:24;;;;;;;;;;;;;;;;;;2099675;28;1804;-82
2021/08/14 05:45:26;;;;;;;;;;;;;;;;;;2108438;28;1234;-82
2021/08/14 05:46:27;;;;;;;;;;;;;;;;;;2099854;28;1801;-82
2021/08/14 05:47:29;;;;;;;;;;;;;;;;;;2100108;28;1678;-82
2021/08/14 05:48:29;;;;;;;;;;;;;;;;;;2099702;28;1653;-82
2021/08/14 05:49:31;;;;;;;;;;;;;;;;;;2100025;28;1622;-82
2021/08/14 05:50:35;;;;;;;;;;;;;;;;;;2100064;28;1602;-82
2021/08/14 05:51:36;;;;;;;;;;;;;;;;;;2091857;28;1550;-81
2021/08/14 05:52:38;;;;;;;;;;;;;;;;;;2091710;28;1573;-81
2021/08/14 05:53:39;;;;;;;;;;;;;;;;;;2108414;28;902;-81
2021/08/14 05:54:40;;;;;;;;;;;;;;;;;;2108100;28;1979;-81
2021/08/14 05:55:42;;;;;;;;;;;;;;;;;;2108290;28;1700;-81
2021/08/14 05:56:43;;;;;;;;;;;;;;;;;;2107986;28;847;-81
2021/08/14 05:57:45;;;;;;;;;;;;;;;;;;2108274;28;1317;-81
2021/08/14 05:58:45;;;;;;;;;;;;;;;;;;2099969;28;1297;-81
2021/08/14 05:59:47;;;;;;;;;;;;;;;;;;2099702;28;1718;-81
2021/08/14 06:00:48;;;;;;;;;;;;;;;;;;2108373;28;846;-81
2021/08/14 06:01:50;;;;;;;;;;;;;;;;;;2108275;28;1224;-81
2021/08/14 06:02:52;;;;;;;;;;;;;;;;;;2099297;28;1633;-82
2021/08/14 06:03:53;;;;;;;;;;;;;;;;;;2108277;28;1717;-82
2021/08/14 06:04:54;;;;;;;;;;;;;;;;;;2099806;28;1598;-82
2021/08/14 06:05:57;;;;;;;;;;;;;;;;;;2091648;28;2102;-82
2021/08/14 06:06:58;;;;;;;;;;;;;;;;;;2091415;28;1751;-82
2021/08/14 06:08:00;;;;;;;;;;;;;;;;;;2099783;28;1387;-82
2021/08/14 06:09:01;;;;;;;;;;;;;;;;;;2099763;28;1376;-82
2021/08/14 06:10:05;;;;;;;;;;;;;;;;;;2099941;28;1642;-82
2021/08/14 06:11:06;;;;;;;;;;;;;;;;;;2100571;28;1459;-82
2021/08/14 06:12:10;;;;;;;;;;;;;;;;;;2100035;28;1615;-83
2021/08/14 06:13:10;;;;;;;;;;;;;;;;;;2091788;28;1389;-82
2021/08/14 06:14:12;;;;;;;;;;;;;;;;;;2091521;28;1704;-83
2021/08/14 06:15:13;;;;;;;;;;;;;;;;;;2099732;28;1963;-82
2021/08/14 06:16:15;;;;;;;;;;;;;;;;;;2107991;28;2033;-82
2021/08/14 06:17:16;;;;;;;;;;;;;;;;;;2100386;28;1576;-82
2021/08/14 06:18:18;;;;;;;;;;;;;;;;;;2107840;28;2127;-82
2021/08/14 06:19:19;;;;;;;;;;;;;;;;;;2107810;28;1792;-82
2021/08/14 06:20:20;;;;;;;;;;;;;;;;;;2100032;28;1333;-82
2021/08/14 06:21:23;;;;;;;;;;;;;;;;;;2108134;28;1672;-82
2021/08/14 06:22:25;;;;;;;;;;;;;;;;;;2099775;28;1748;-83
2021/08/14 06:23:25;;;;;;;;;;;;;;;;;;2099770;28;1750;-81
2021/08/14 06:24:28;;;;;;;;;;;;;;;;;;2099837;28;844;-82
2021/08/14 06:25:28;;;;;;;;;;;;;;;;;;2099829;28;1273;-82
2021/08/14 06:26:30;;;;;;;;;;;;;;;;;;2099582;28;1352;-82
2021/08/14 06:27:31;;;;;;;;;;;;;;;;;;2101454;28;1523;-82
2021/08/14 06:28:33;;;;;;;;;;;;;;;;;;2106678;28;1706;-82
2021/08/14 06:29:34;;;;;;;;;;;;;;;;;;2099224;28;1634;-81
2021/08/14 06:30:35;;;;;;;;;;;;;;;;;;2099420;28;1345;-82
2021/08/14 06:31:37;;;;;;;;;;;;;;;;;;2091257;28;1376;-83
2021/08/14 06:32:38;;;;;;;;;;;;;;;;;;2099593;28;1234;-82
2021/08/14 06:33:40;;;;;;;;;;;;;;;;;;2108390;28;1262;-82
2021/08/14 06:34:41;;;;;;;;;;;;;;;;;;2107886;28;1550;-83
2021/08/14 06:35:42;;;;;;;;;;;;;;;;;;2099159;28;1910;-85
2021/08/14 06:36:45;;;;;;;;;;;;;;;;;;2100084;28;1321;-87
2021/08/14 06:37:46;;;;;;;;;;;;;;;;;;2111665;28;1881;-87
2021/08/14 06:38:48;;;;;;;;;;;;;;;;;;2108140;28;1390;-87
2021/08/14 06:39:50;;;;;;;;;;;;;;;;;;2100025;28;1258;-86
2021/08/14 06:40:51;;;;;;;;;;;;;;;;;;2107592;28;1438;-86
2021/08/14 06:41:53;;;;;;;;;;;;;;;;;;2108614;28;1331;-86
2021/08/14 06:42:53;;;;;;;;;;;;;;;;;;2111112;28;1489;-88
2021/08/14 06:43:55;;;;;;;;;;;;;;;;;;2099802;28;1202;-88
2021/08/14 06:44:56;;;;;;;;;;;;;;;;;;2099723;28;1329;-88
2021/08/14 06:45:58;;;;;;;;;;;;;;;;;;2107869;28;1253;-88
2021/08/14 06:47:00;;;;;;;;;;;;;;;;;;2099577;28;1230;-87
2021/08/14 06:48:01;;;;;;;;;;;;;;;;;;2113167;28;1106;-88
2021/08/14 06:49:03;;;;;;;;;;;;;;;;;;2108161;28;1345;-88
2021/08/14 06:50:04;;;;;;;;;;;;;;;;;;2107988;28;1304;-87
2021/08/14 06:51:06;;;;;;;;;;;;;;;;;;2108043;28;1714;-88
2021/08/14 06:52:09;;;;;;;;;;;;;;;;;;2092058;28;1228;-88
2021/08/14 06:53:12;;;;;;;;;;;;;;;;;;2098648;28;2045;-88
2021/08/14 06:54:12;;;;;;;;;;;;;;;;;;2107932;28;1422;-88
2021/08/14 06:55:14;;;;;;;;;;;;;;;;;;2116586;28;1917;-88
2021/08/14 06:56:16;;;;;;;;;;;;;;;;;;2110596;28;2056;-89
2021/08/14 06:57:18;;;;;;;;;;;;;;;;;;2100038;28;1254;-88
2021/08/14 06:58:19;;;;;;;;;;;;;;;;;;2091577;28;1241;-88
2021/08/14 06:59:21;;;;;;;;;;;;;;;;;;2099545;28;1327;-88
2021/08/14 07:00:21;;;;;;;;;;;;;;;;;;2107952;28;1185;-88
2021/08/14 07:01:23;;;;;;;;;;;;;;;;;;2105607;28;1345;-87
2021/08/14 07:02:24;;;;;;;;;;;;;;;;;;2116133;28;1272;-88
2021/08/14 07:03:26;;;;;;;;;;;;;;;;;;2099923;28;1415;-87
2021/08/14 07:04:26;;;;;;;;;;;;;;;;;;2094752;28;1416;-83
2021/08/14 07:05:28;;;;;;;;;;;;;;;;;;2099257;28;1347;-82
2021/08/14 07:06:31;;;;;;;;;;;;;;;;;;2098940;28;1407;-82
2021/08/14 07:07:33;;;;;;;;;;;;;;;;;;2098982;28;1651;-83
2021/08/14 07:08:35;;;;;;;;;;;;;;;;;;2106983;28;1746;-82
2021/08/14 07:09:36;;;;;;;;;;;;;;;;;;2107933;28;1578;-82